Time;durP1;ratioP1;P1;durP2;ratioP2;P2;SDS_P1;SDS_P2;PMS_P1;PMS_P2;Temp;Humidity;BMP_temperature;BMP_pressure;BME280_temperature;BME280_humidity;BME280_pressure;Samples;Min_cycle;Max_cycle;Signal;HPM_P1;HPM_P2
2022/01/10 00:01:04;;;;;;;23.40;6.10;;;;;;;-149.78;100.00;50489.03;5072960;28;20530;-60
2022/01/10 00:03:29;;;;;;;21.00;5.63;;;;;;;-149.78;100.00;50534.03;5072798;28;20107;-61
2022/01/10 00:05:55;;;;;;;21.65;6.80;;;;;;;-149.78;100.00;50573.16;5072674;28;20580;-60
2022/01/10 00:08:21;;;;;;;16.48;5.68;;;;;;;-149.78;100.00;50530.13;5072765;28;20434;-64
2022/01/10 00:10:47;;;;;;;30.20;6.10;;;;;;;-149.78;100.00;50498.81;5072839;28;20032;-64
2022/01/10 00:13:13;;;;;;;20.05;6.00;;;;;;;-149.78;100.00;50539.91;5072976;28;20078;-65
2022/01/10 00:15:39;;;;;;;26.85;6.50;;;;;;;-149.78;100.00;50549.69;5072990;28;20035;-64
2022/01/10 00:18:05;;;;;;;28.65;6.63;;;;;;;-149.78;100.00;50541.84;5072978;28;20041;-60
2022/01/10 00:20:31;;;;;;;25.88;7.10;;;;;;;-149.78;100.00;50522.28;5072815;28;20067;-61
2022/01/10 00:22:56;;;;;;;25.80;6.70;;;;;;;-149.78;100.00;50526.22;5072967;28;20037;-61
2022/01/10 00:25:23;;;;;;;22.33;6.80;;;;;;;-149.78;100.00;50514.47;5072749;28;20053;-61
2022/01/10 00:27:52;;;;;;;28.38;6.85;;;;;;;-149.78;100.00;50537.94;5073114;28;20464;-64
2022/01/10 00:30:21;;;;;;;22.38;7.15;;;;;;;-149.78;100.00;50500.78;5072861;28;20041;-65
2022/01/10 00:32:46;;;;;;;33.63;6.80;;;;;;;-149.78;100.00;50514.47;5072930;28;20483;-65
2022/01/10 00:35:13;;;;;;;28.30;7.68;;;;;;;-149.78;100.00;50537.94;5072420;28;20044;-65
2022/01/10 00:37:41;;;;;;;26.88;8.45;;;;;;;-149.78;100.00;50530.13;5076363;28;20039;-64
2022/01/10 00:40:08;;;;;;;24.33;6.75;;;;;;;-149.78;100.00;50518.38;5076854;28;20108;-65
2022/01/10 00:42:34;;;;;;;27.90;8.52;;;;;;;-149.78;100.00;50526.22;5076837;28;20047;-65
2022/01/10 00:45:02;;;;;;;28.40;7.50;;;;;;;-149.78;100.00;50545.75;5076573;28;20033;-61
2022/01/10 00:47:28;;;;;;;21.10;6.22;;;;;;;-149.78;100.00;50518.38;5076956;28;20032;-61
2022/01/10 00:49:54;;;;;;;20.83;6.63;;;;;;;-149.78;100.00;50510.56;5076975;28;20205;-64
2022/01/10 00:52:21;;;;;;;25.25;6.55;;;;;;;-149.78;100.00;50516.44;5076608;28;20456;-64
2022/01/10 00:54:48;;;;;;;23.17;6.25;;;;;;;-149.78;100.00;50514.47;5076709;28;20476;-64
2022/01/10 00:57:14;;;;;;;31.73;6.47;;;;;;;-149.78;100.00;50522.28;5076538;28;20567;-65
2022/01/10 00:59:40;;;;;;;26.48;6.15;;;;;;;-149.78;100.00;50549.69;5076470;28;20174;-64
2022/01/10 01:02:06;;;;;;;28.17;6.45;;;;;;;-149.78;100.00;50524.25;5076411;28;20029;-64
2022/01/10 01:04:32;;;;;;;24.42;7.10;;;;;;;-149.78;100.00;50518.38;5076210;28;20036;-64
2022/01/10 01:06:57;;;;;;;23.77;6.68;;;;;;;-149.78;100.00;50575.09;5076211;28;20478;-64
2022/01/10 01:09:28;;;;;;;24.00;6.45;;;;;;;-149.78;100.00;50545.75;5076326;28;20024;-64
2022/01/10 01:17:13;;;;;;;29.55;6.25;;;;;;;-149.78;100.00;50526.22;5044139;28;20479;-61
2022/01/10 01:25:13;;;;;;;20.40;5.45;;;;;;;-149.78;100.00;50502.75;5075828;28;20090;-60
2022/01/10 01:27:40;;;;;;;18.80;5.50;;;;;;;-149.78;100.00;50543.81;5075968;28;20433;-60
2022/01/10 01:30:08;;;;;;;26.33;5.60;;;;;;;-149.78;100.00;50522.28;5075853;28;20028;-60
2022/01/10 01:32:34;;;;;;;18.45;5.60;;;;;;;-149.78;100.00;50541.84;5075891;28;20040;-61
2022/01/10 01:35:05;;;;;;;29.15;5.25;;;;;;;-149.78;100.00;50537.94;5075710;28;20437;-64
2022/01/10 01:37:31;;;;;;;16.98;4.65;;;;;;;-149.78;100.00;50561.41;5076023;28;20032;-64
2022/01/10 01:39:58;;;;;;;18.23;5.43;;;;;;;-149.78;100.00;50534.03;5075643;28;20029;-64
2022/01/10 01:44:56;;;;;;;29.35;6.20;;;;;;;-149.78;100.00;50545.75;5057647;28;20123;-64
2022/01/10 01:47:22;;;;;;;19.25;5.28;;;;;;;-149.78;100.00;50545.75;5075292;28;20040;-65
2022/01/10 01:49:47;;;;;;;20.70;5.78;;;;;;;-149.78;100.00;50541.84;5057692;28;20050;-64
2022/01/10 01:52:13;;;;;;;22.20;5.63;;;;;;;-149.78;100.00;50537.94;5075517;28;20047;-61
2022/01/10 01:54:38;;;;;;;18.65;5.57;;;;;;;-149.78;100.00;50510.56;5075592;28;20032;-64
2022/01/10 01:57:06;;;;;;;27.17;5.47;;;;;;;-149.78;100.00;50547.72;5075460;28;20045;-65
2022/01/10 01:59:37;;;;;;;22.58;5.95;;;;;;;-149.78;100.00;50518.38;5075565;28;20462;-65
2022/01/10 02:02:03;;;;;;;26.73;6.13;;;;;;;-149.78;100.00;50563.38;5075311;28;20518;-64
2022/01/10 02:04:29;;;;;;;20.17;5.25;;;;;;;-149.78;100.00;50530.13;5075258;28;20052;-64
2022/01/10 02:06:56;;;;;;;23.35;5.55;;;;;;;-149.78;100.00;50520.34;5075123;28;20421;-65
2022/01/10 02:09:22;;;;;;;24.15;5.75;;;;;;;-149.78;100.00;50592.72;5075230;28;20032;-65
2022/01/10 02:11:48;;;;;;;25.63;5.28;;;;;;;-149.78;100.00;50537.94;5057464;28;20028;-65
2022/01/10 02:14:18;;;;;;;25.63;4.93;;;;;;;-149.78;100.00;50510.56;5057279;28;20024;-65
2022/01/10 02:16:55;;;;;;;20.88;4.90;;;;;;;-149.78;100.00;50541.84;5075280;28;20037;-61
2022/01/10 02:19:25;;;;;;;21.60;4.68;;;;;;;-149.78;100.00;50522.28;5074844;28;20606;-61
2022/01/10 02:21:51;;;;;;;20.35;5.28;;;;;;;-149.78;100.00;50559.47;5074767;28;20039;-61
2022/01/10 02:24:17;;;;;;;17.98;4.85;;;;;;;-149.78;100.00;50569.22;5074457;28;20048;-61
2022/01/10 02:26:48;;;;;;;22.90;4.65;;;;;;;-149.78;100.00;50530.13;5056895;28;20048;-61
2022/01/10 02:29:14;;;;;;;20.45;4.82;;;;;;;-149.78;100.00;50537.94;5074294;28;20051;-61
2022/01/10 02:31:40;;;;;;;20.92;5.88;;;;;;;-149.78;100.00;50569.22;5074561;28;20028;-61
2022/01/10 02:34:06;;;;;;;27.92;5.15;;;;;;;-149.78;100.00;50512.50;5074031;28;20054;-61
2022/01/10 02:36:32;;;;;;;18.65;4.25;;;;;;;-149.78;100.00;50553.59;5074064;28;20060;-61
2022/01/10 02:39:10;;;;;;;25.17;4.50;;;;;;;-149.78;100.00;50528.16;5073848;28;20083;-61
2022/01/10 02:41:38;;;;;;;20.27;4.53;;;;;;;-149.78;100.00;50557.50;5074110;28;20036;-60
2022/01/10 02:44:08;;;;;;;20.48;4.93;;;;;;;-149.78;100.00;50530.13;5074078;28;20048;-61
2022/01/10 02:46:36;;;;;;;25.42;5.88;;;;;;;-149.78;100.00;50543.81;5074185;28;20058;-61
2022/01/10 02:49:13;;;;;;;24.10;4.55;;;;;;;-149.78;100.00;50553.59;5074208;28;20040;-61
2022/01/10 02:51:39;;;;;;;21.77;4.55;;;;;;;-149.78;100.00;50530.13;5074475;28;20440;-61
2022/01/10 02:54:06;;;;;;;19.35;4.30;;;;;;;-149.78;100.00;50577.06;5074242;28;20075;-61
2022/01/10 02:56:32;;;;;;;20.30;4.60;;;;;;;-149.78;100.00;50512.50;5074212;28;20120;-64
2022/01/10 02:58:57;;;;;;;24.20;4.65;;;;;;;-149.78;100.00;50530.13;5073240;28;20455;-64
2022/01/10 03:01:23;;;;;;;20.20;4.57;;;;;;;-149.78;100.00;50541.84;5073935;28;20036;-64
2022/01/10 03:03:49;;;;;;;17.10;4.43;;;;;;;-149.78;100.00;50526.22;5073416;28;20033;-65
2022/01/10 03:06:15;;;;;;;19.67;3.92;;;;;;;-149.78;100.00;50491.00;5073449;28;20072;-64
2022/01/10 03:08:41;;;;;;;21.85;5.55;;;;;;;-149.78;100.00;50514.47;5073487;28;20044;-65
2022/01/10 03:11:07;;;;;;;27.30;5.22;;;;;;;-149.78;100.00;50545.75;5073339;28;20041;-65
2022/01/10 03:13:32;;;;;;;16.95;4.03;;;;;;;-149.78;100.00;50545.75;5073368;28;20093;-65
2022/01/10 03:15:58;;;;;;;23.17;4.93;;;;;;;-149.78;100.00;50557.50;5071079;28;20033;-65
2022/01/10 03:18:24;;;;;;;23.70;4.90;;;;;;;-149.78;100.00;50522.28;5064007;28;20115;-64
2022/01/10 03:20:49;;;;;;;18.20;5.07;;;;;;;-149.78;100.00;50512.50;5072137;28;20048;-65
2022/01/10 03:23:16;;;;;;;26.48;5.13;;;;;;;-149.78;100.00;50471.44;5069224;28;20412;-65
2022/01/10 03:25:41;;;;;;;20.17;3.80;;;;;;;-149.78;100.00;50516.44;5070931;28;20080;-65
2022/01/10 03:28:08;;;;;;;20.08;3.85;;;;;;;-149.78;100.00;50537.94;5072730;28;20142;-65
2022/01/10 03:30:34;;;;;;;16.55;4.15;;;;;;;-149.78;100.00;50522.28;5073010;28;20041;-64
2022/01/10 03:33:02;;;;;;;26.30;3.80;;;;;;;-149.78;100.00;50518.38;5073143;28;20036;-65
2022/01/10 03:35:28;;;;;;;18.15;3.75;;;;;;;-149.78;100.00;50535.97;5072360;28;20029;-65
2022/01/10 03:37:54;;;;;;;16.75;4.55;;;;;;;-149.78;100.00;50557.50;5073077;28;20037;-64
2022/01/10 03:40:19;;;;;;;20.10;4.13;;;;;;;-149.78;100.00;50553.59;5073277;28;20044;-65
2022/01/10 03:42:45;;;;;;;18.13;4.15;;;;;;;-149.78;100.00;50537.94;5073185;28;20037;-65
2022/01/10 03:45:11;;;;;;;22.35;5.25;;;;;;;-149.78;100.00;50510.56;5073402;28;20121;-65
2022/01/10 03:47:37;;;;;;;16.23;3.80;;;;;;;-149.78;100.00;50518.38;5061939;28;20051;-65
2022/01/10 03:50:05;;;;;;;19.73;4.25;;;;;;;-149.78;100.00;50516.44;5053409;28;20032;-64
2022/01/10 03:52:30;;;;;;;21.92;4.22;;;;;;;-149.78;100.00;50520.34;5042775;28;20112;-65
2022/01/10 03:54:56;;;;;;;22.90;4.32;;;;;;;-149.78;100.00;50526.22;5073331;28;20428;-65
2022/01/10 03:57:21;;;;;;;23.17;4.35;;;;;;;-149.78;100.00;50526.22;5073008;28;20364;-65
2022/01/10 03:59:48;;;;;;;22.45;6.90;;;;;;;-149.78;100.00;50532.06;5073141;28;20036;-65
2022/01/10 04:02:13;;;;;;;31.83;5.47;;;;;;;-149.78;100.00;50528.16;5073266;28;20082;-65
2022/01/10 04:04:39;;;;;;;23.27;5.00;;;;;;;-149.78;100.00;50534.03;5073053;28;20100;-65
2022/01/10 04:07:06;;;;;;;23.00;4.43;;;;;;;-149.78;100.00;50553.59;5073326;28;20037;-64
2022/01/10 04:09:31;;;;;;;21.00;5.05;;;;;;;-149.78;100.00;50539.91;5073186;28;20033;-65
2022/01/10 04:11:57;;;;;;;20.02;5.22;;;;;;;-149.78;100.00;50526.22;5073106;28;20119;-65
2022/01/10 04:14:23;;;;;;;29.67;5.68;;;;;;;-149.78;100.00;50535.97;5073019;28;20036;-64
2022/01/10 04:16:49;;;;;;;20.20;5.00;;;;;;;-149.78;100.00;50502.75;5073009;28;20452;-65
2022/01/10 04:19:14;;;;;;;23.10;4.53;;;;;;;-149.78;100.00;50512.50;5072918;28;20043;-65
2022/01/10 04:21:40;;;;;;;21.58;4.50;;;;;;;-149.78;100.00;50514.47;5072757;28;20037;-65
2022/01/10 04:24:06;;;;;;;21.63;5.05;;;;;;;-149.78;100.00;50514.47;5072813;28;20094;-65
2022/01/10 04:26:31;;;;;;;30.52;4.80;;;;;;;-149.78;100.00;50518.38;5054699;28;20048;-64
2022/01/10 04:28:57;;;;;;;21.70;4.07;;;;;;;-149.78;100.00;50526.22;5072824;28;20036;-64
2022/01/10 04:31:22;;;;;;;19.55;4.00;;;;;;;-149.78;100.00;50557.50;5072870;28;20040;-64
2022/01/10 04:33:48;;;;;;;18.10;3.92;;;;;;;-149.78;100.00;50522.28;5072813;28;20471;-61
2022/01/10 04:36:14;;;;;;;23.73;3.88;;;;;;;-149.78;100.00;50541.84;5072436;28;20037;-61
2022/01/10 04:38:42;;;;;;;21.15;4.40;;;;;;;-149.78;100.00;50514.47;5071049;28;20028;-61
2022/01/10 04:41:10;;;;;;;18.35;4.05;;;;;;;-149.78;100.00;50522.28;5071825;28;20028;-61
2022/01/10 04:43:37;;;;;;;24.95;4.00;;;;;;;-149.78;100.00;50530.13;5072194;28;20453;-61
2022/01/10 04:46:02;;;;;;;32.65;4.40;;;;;;;-149.78;100.00;50530.13;5054608;28;20028;-61
2022/01/10 04:48:28;;;;;;;21.80;4.22;;;;;;;-149.78;100.00;50526.22;5072493;28;20028;-61
2022/01/10 04:53:46;;;;;;;20.80;3.88;;;;;;;-149.78;100.00;50549.69;5072170;28;20033;-61
2022/01/10 04:56:14;;;;;;;23.30;4.35;;;;;;;-149.78;100.00;50534.03;5054486;28;20077;-61
2022/01/10 04:58:41;;;;;;;26.80;5.82;;;;;;;-149.78;100.00;50530.13;5072309;28;20445;-61
2022/01/10 05:01:07;;;;;;;19.92;3.95;;;;;;;-149.78;100.00;50510.56;5072610;28;20033;-61
2022/01/10 05:03:33;;;;;;;30.67;4.53;;;;;;;-149.78;100.00;50537.94;5072424;28;20036;-61
2022/01/10 05:05:59;;;;;;;21.55;4.03;;;;;;;-149.78;100.00;50526.22;5072311;28;20033;-61
2022/01/10 05:08:25;;;;;;;21.88;3.72;;;;;;;-149.78;100.00;50522.28;5072660;28;20548;-61
2022/01/10 05:10:51;;;;;;;21.50;3.85;;;;;;;-149.78;100.00;50479.28;5072628;28;20076;-61
2022/01/10 05:13:17;;;;;;;27.90;3.75;;;;;;;-149.78;100.00;50530.13;5072559;28;20047;-61
2022/01/10 05:15:46;;;;;;;20.83;3.88;;;;;;;-149.78;100.00;50498.81;5072431;28;20033;-61
2022/01/10 05:18:12;;;;;;;19.60;3.78;;;;;;;-149.78;100.00;50526.22;5072435;28;20033;-61
2022/01/10 05:20:38;;;;;;;23.90;4.65;;;;;;;-149.78;100.00;50530.13;5072255;28;20036;-61
2022/01/10 05:23:04;;;;;;;20.55;3.97;;;;;;;-149.78;100.00;50528.16;5074827;28;20121;-61
2022/01/10 05:25:29;;;;;;;20.77;3.55;;;;;;;-149.78;100.00;50561.41;5075678;28;20106;-61
2022/01/10 05:27:55;;;;;;;15.73;4.07;;;;;;;-149.78;100.00;50522.28;5075069;28;20051;-61
2022/01/10 05:30:21;;;;;;;19.25;3.42;;;;;;;-149.78;100.00;50534.03;5075614;28;20033;-61
2022/01/10 05:32:47;;;;;;;21.90;4.22;;;;;;;-149.78;100.00;50510.56;5075598;28;20067;-61
2022/01/10 05:35:13;;;;;;;24.23;4.68;;;;;;;-149.78;100.00;50518.38;5075916;28;20056;-61
2022/01/10 05:37:39;;;;;;;20.25;4.38;;;;;;;-149.78;100.00;50518.38;5075835;28;20032;-61
2022/01/10 05:40:05;;;;;;;19.02;3.35;;;;;;;-149.78;100.00;50530.13;5075948;28;20052;-61
2022/01/10 05:42:31;;;;;;;16.60;3.35;;;;;;;-149.78;100.00;50545.75;5075722;28;20067;-61
2022/01/10 05:44:57;;;;;;;14.98;3.00;;;;;;;-149.78;100.00;50518.38;5075631;28;20080;-61
2022/01/10 05:47:23;;;;;;;27.20;3.47;;;;;;;-149.78;100.00;50510.56;5075959;28;20052;-61
2022/01/10 05:49:49;;;;;;;12.63;3.13;;;;;;;-149.78;100.00;50526.22;5075376;28;20041;-61
2022/01/10 05:52:15;;;;;;;20.98;4.05;;;;;;;-149.78;100.00;50502.75;5075651;28;20032;-61
2022/01/10 05:54:41;;;;;;;22.83;3.95;;;;;;;-149.78;100.00;50549.69;5075651;28;20435;-61
2022/01/10 05:57:06;;;;;;;27.35;3.58;;;;;;;-149.78;100.00;50553.59;5075647;28;20052;-61
2022/01/10 05:59:32;;;;;;;24.80;4.10;;;;;;;-149.78;100.00;50557.50;5075414;28;20032;-61
2022/01/10 06:01:58;;;;;;;17.92;3.67;;;;;;;-149.78;100.00;50549.69;5075511;28;20036;-61
2022/01/10 06:04:24;;;;;;;18.55;3.45;;;;;;;-149.78;100.00;50502.75;5057388;28;20111;-61
2022/01/10 06:06:50;;;;;;;17.42;3.95;;;;;;;-149.78;100.00;50528.16;5075204;28;20457;-61
2022/01/10 06:09:16;;;;;;;23.58;3.60;;;;;;;-149.78;100.00;50547.72;5075404;28;20390;-61
2022/01/10 06:11:42;;;;;;;18.13;3.92;;;;;;;-149.78;100.00;50537.94;5057302;28;20037;-61
2022/01/10 06:14:08;;;;;;;18.33;4.00;;;;;;;-149.78;100.00;50502.75;5075090;28;20040;-62
2022/01/10 06:16:36;;;;;;;25.85;3.50;;;;;;;-149.78;100.00;50502.75;5075062;28;20058;-61
2022/01/10 06:19:02;;;;;;;25.60;4.70;;;;;;;-149.78;100.00;50514.47;5075145;28;20453;-61
2022/01/10 06:21:28;;;;;;;15.93;3.50;;;;;;;-149.78;100.00;50551.63;5074998;28;20033;-61
2022/01/10 06:23:54;;;;;;;15.10;3.55;;;;;;;-149.78;100.00;50537.94;5074875;28;20039;-61
2022/01/10 06:26:20;;;;;;;16.52;3.20;;;;;;;-149.78;100.00;50557.50;5074630;28;20071;-61
2022/01/10 06:28:45;;;;;;;21.98;3.85;;;;;;;-149.78;100.00;50510.56;5074749;28;20032;-61
2022/01/10 06:31:13;;;;;;;14.45;3.35;;;;;;;-149.78;100.00;50522.28;5074638;28;20624;-61
2022/01/10 06:33:39;;;;;;;21.17;3.10;;;;;;;-149.78;100.00;50522.28;5055434;28;20048;-61
2022/01/10 06:36:08;;;;;;;22.60;4.80;;;;;;;-149.78;100.00;50506.66;5074715;28;20032;-61
2022/01/10 06:38:35;;;;;;;13.38;3.35;;;;;;;-149.78;100.00;50526.22;5074445;28;20086;-61
2022/01/10 06:41:01;;;;;;;19.42;4.18;;;;;;;-149.78;100.00;50510.56;5055849;28;20044;-61
2022/01/10 06:43:27;;;;;;;21.75;4.25;;;;;;;-149.78;100.00;50498.81;5056896;28;20043;-61
2022/01/10 06:45:53;;;;;;;21.95;4.05;;;;;;;-149.78;100.00;50534.03;5074336;28;20037;-61
2022/01/10 06:48:19;;;;;;;21.70;3.38;;;;;;;-149.78;100.00;50510.56;5074452;28;20475;-61
2022/01/10 06:50:47;;;;;;;16.02;3.78;;;;;;;-149.78;100.00;50510.56;5074219;28;20356;-61
2022/01/10 06:53:17;;;;;;;13.25;3.25;;;;;;;-149.78;100.00;50549.69;5074290;28;20036;-61
2022/01/10 06:55:43;;;;;;;20.02;3.63;;;;;;;-149.78;100.00;50522.28;5067624;28;20039;-61
2022/01/10 06:58:09;;;;;;;17.88;3.45;;;;;;;-149.78;100.00;50520.34;5043599;28;20029;-65
2022/01/10 07:00:36;;;;;;;18.30;4.32;;;;;;;-149.78;100.00;50514.47;5057359;28;20361;-65
2022/01/10 07:03:02;;;;;;;22.35;4.80;;;;;;;-149.78;100.00;50526.22;5062312;28;20041;-65
2022/01/10 07:05:30;;;;;;;22.45;4.68;;;;;;;-149.78;100.00;50530.13;5062001;28;20086;-65
2022/01/10 07:07:55;;;;;;;17.98;4.10;;;;;;;-149.78;100.00;50547.72;5063265;28;20473;-65
2022/01/10 07:10:22;;;;;;;15.07;3.28;;;;;;;-149.78;100.00;50524.25;5058534;28;20058;-65
2022/01/10 07:12:47;;;;;;;13.27;3.38;;;;;;;-149.78;100.00;50516.44;5055681;28;20040;-65
2022/01/10 07:15:14;;;;;;;16.58;3.17;;;;;;;-149.78;100.00;50547.72;5056812;28;20427;-64
2022/01/10 07:17:40;;;;;;;18.77;3.33;;;;;;;-149.78;100.00;50530.13;5061866;28;20035;-64
2022/01/10 07:20:07;;;;;;;27.95;5.60;;;;;;;-149.78;100.00;50532.06;5054405;28;20033;-65
2022/01/10 07:22:32;;;;;;;18.20;3.80;;;;;;;-149.78;100.00;50518.38;5053512;28;20048;-64
2022/01/10 07:24:58;;;;;;;13.52;3.88;;;;;;;-149.78;100.00;50510.56;5053374;28;20667;-64
2022/01/10 07:27:24;;;;;;;20.67;3.90;;;;;;;-149.78;100.00;50530.13;5067315;28;20471;-66
2022/01/10 07:29:50;;;;;;;16.80;3.53;;;;;;;-149.78;100.00;50514.47;5073734;28;20041;-65
2022/01/10 07:32:17;;;;;;;23.42;3.78;;;;;;;-149.78;100.00;50545.75;5069206;28;20468;-61
2022/01/10 07:34:43;;;;;;;21.63;3.70;;;;;;;-149.78;100.00;50491.00;5064613;28;20040;-61
2022/01/10 07:37:09;;;;;;;26.45;5.20;;;;;;;-149.78;100.00;50535.97;5056023;28;20056;-61
2022/01/10 07:39:35;;;;;;;20.23;4.22;;;;;;;-149.78;100.00;50547.72;5073430;28;20063;-65
2022/01/10 07:42:01;;;;;;;19.90;3.88;;;;;;;-149.78;100.00;50534.03;5073528;28;20487;-65
2022/01/10 07:44:26;;;;;;;20.83;5.63;;;;;;;-149.78;100.00;50528.16;5055182;28;20037;-65
2022/01/10 07:46:52;;;;;;;24.95;4.43;;;;;;;-149.78;100.00;50510.56;5071745;28;20498;-63
2022/01/10 07:49:18;;;;;;;21.90;4.18;;;;;;;-149.78;100.00;50549.69;5054292;28;20484;-64
2022/01/10 07:51:44;;;;;;;22.55;4.35;;;;;;;-149.78;100.00;50492.97;5072145;28;20032;-62
2022/01/10 07:54:09;;;;;;;23.63;3.90;;;;;;;-149.78;100.00;50553.59;5072779;28;20028;-63
2022/01/10 07:56:35;;;;;;;29.63;4.30;;;;;;;-149.78;100.00;50545.75;5055251;28;20039;-63
2022/01/10 07:59:01;;;;;;;21.13;3.90;;;;;;;-149.78;100.00;50545.75;5073284;28;20475;-63
2022/01/10 08:01:26;;;;;;;26.00;4.20;;;;;;;-149.78;100.00;50500.78;5064883;28;20041;-63
2022/01/10 08:03:54;;;;;;;16.77;4.07;;;;;;;-149.78;100.00;50504.69;5059731;28;20041;-66
2022/01/10 08:06:20;;;;;;;20.70;3.63;;;;;;;-149.78;100.00;50543.81;5063558;28;20051;-64
2022/01/10 08:08:46;;;;;;;25.10;4.78;;;;;;;-149.78;100.00;50534.03;5063686;28;20140;-64
2022/01/10 08:11:12;;;;;;;22.75;3.72;;;;;;;-149.78;100.00;50526.22;5066510;28;20178;-63
2022/01/10 08:13:38;;;;;;;16.48;3.75;;;;;;;-149.78;100.00;50514.47;5050976;28;20029;-63
2022/01/10 08:16:04;;;;;;;18.83;3.85;;;;;;;-149.78;100.00;50500.78;5071259;28;20028;-64
2022/01/10 08:18:31;;;;;;;15.05;3.83;;;;;;;-149.78;100.00;50516.44;5071741;28;20060;-64
2022/01/10 08:20:57;;;;;;;18.73;4.20;;;;;;;-149.78;100.00;50514.47;5071594;28;20043;-64
2022/01/10 08:23:23;;;;;;;25.25;4.10;;;;;;;-149.78;100.00;50522.28;5048508;28;20171;-64
2022/01/10 08:25:49;;;;;;;19.35;3.95;;;;;;;-149.78;100.00;50522.28;5057978;28;20037;-64
2022/01/10 08:28:15;;;;;;;20.42;3.88;;;;;;;-149.78;100.00;50534.03;5072786;28;20040;-64
2022/01/10 08:30:40;;;;;;;13.73;3.17;;;;;;;-149.78;100.00;50518.38;5072767;28;20076;-63
2022/01/10 08:33:06;;;;;;;13.25;3.60;;;;;;;-149.78;100.00;50494.91;5054797;28;20048;-63
2022/01/10 08:35:33;;;;;;;30.17;4.38;;;;;;;-149.78;100.00;50537.94;5072816;28;20035;-66
2022/01/10 08:37:59;;;;;;;22.50;4.18;;;;;;;-149.78;100.00;50514.47;5072758;28;20036;-67
2022/01/10 08:40:25;;;;;;;23.52;4.05;;;;;;;-149.78;100.00;50514.47;5054860;28;20461;-66
2022/01/10 08:42:50;;;;;;;18.60;4.53;;;;;;;-149.78;100.00;50514.47;5072705;28;20128;-66
2022/01/10 08:45:16;;;;;;;22.65;4.55;;;;;;;-149.78;100.00;50530.13;5054878;28;20033;-67
2022/01/10 08:47:42;;;;;;;19.45;4.05;;;;;;;-149.78;100.00;50506.66;5072675;28;20067;-67
2022/01/10 08:50:10;;;;;;;17.83;3.72;;;;;;;-149.78;100.00;50522.28;5072764;28;20028;-67
2022/01/10 08:52:36;;;;;;;29.55;4.43;;;;;;;-149.78;100.00;50549.69;5037528;28;20041;-67
2022/01/10 08:55:03;;;;;;;18.63;3.92;;;;;;;-149.78;100.00;50537.94;5069444;28;20103;-66
2022/01/10 08:57:29;;;;;;;21.23;3.35;;;;;;;-149.78;100.00;50518.38;5072631;28;20430;-66
2022/01/10 08:59:55;;;;;;;30.65;4.20;;;;;;;-149.78;100.00;50502.75;5062347;28;20090;-67
2022/01/10 09:02:21;;;;;;;21.73;3.83;;;;;;;-149.78;100.00;50541.84;5069155;28;20044;-64
2022/01/10 09:04:47;;;;;;;19.02;3.60;;;;;;;-149.78;100.00;50483.19;5075960;28;20038;-63
2022/01/10 09:07:13;;;;;;;14.38;3.67;;;;;;;-149.78;100.00;50549.69;5072467;28;20109;-63
2022/01/10 09:09:39;;;;;;;23.35;4.07;;;;;;;-149.78;100.00;50530.13;5062513;28;20475;-67
2022/01/10 09:12:05;;;;;;;16.02;3.42;;;;;;;-149.78;100.00;50557.50;5072404;28;20032;-66
2022/01/10 09:14:31;;;;;;;16.05;3.25;;;;;;;-149.78;100.00;50510.56;5076030;28;20104;-67
2022/01/10 09:16:57;;;;;;;17.15;3.05;;;;;;;-149.78;100.00;50528.16;5076154;28;20795;-66
2022/01/10 09:19:22;;;;;;;21.65;3.05;;;;;;;-149.78;100.00;50498.81;5075542;28;20482;-67
2022/01/10 09:21:49;;;;;;;20.27;3.30;;;;;;;-149.78;100.00;50530.13;5069012;28;20056;-66
2022/01/10 09:24:15;;;;;;;20.90;4.28;;;;;;;-149.78;100.00;50491.00;5055336;28;20032;-66
2022/01/10 09:26:40;;;;;;;23.38;3.85;;;;;;;-149.78;100.00;50494.91;5062874;28;20102;-66
2022/01/10 09:29:07;;;;;;;23.85;3.47;;;;;;;-149.78;100.00;50561.41;5063479;28;20024;-67
2022/01/10 09:31:34;;;;;;;14.35;2.60;;;;;;;-149.78;100.00;50524.25;5070878;28;20032;-67
2022/01/10 09:34:00;;;;;;;23.38;3.33;;;;;;;-149.78;100.00;50504.69;5069067;28;20575;-64
2022/01/10 09:36:29;;;;;;;21.13;3.75;;;;;;;-149.78;100.00;50498.81;5075482;28;20041;-66
2022/01/10 09:38:57;;;;;;;22.42;3.88;;;;;;;-149.78;100.00;50508.59;5074405;28;20029;-66
2022/01/10 09:41:23;;;;;;;19.92;2.70;;;;;;;-149.78;100.00;50508.59;5059933;28;20040;-67
2022/01/10 09:43:51;;;;;;;30.48;4.05;;;;;;;-149.78;100.00;50502.75;5075029;28;20028;-66
2022/01/10 09:46:18;;;;;;;17.88;3.20;;;;;;;-149.78;100.00;50557.50;5041333;28;20029;-67
2022/01/10 09:48:44;;;;;;;21.38;2.88;;;;;;;-149.78;100.00;50516.44;5073572;28;20392;-67
2022/01/10 09:51:10;;;;;;;23.40;2.97;;;;;;;-149.78;100.00;50541.84;5074207;28;20141;-67
2022/01/10 09:53:36;;;;;;;25.73;3.47;;;;;;;-149.78;100.00;50532.06;5075270;28;20063;-67
2022/01/10 09:56:02;;;;;;;21.85;2.85;;;;;;;-149.78;100.00;50541.84;5066605;28;20024;-67
2022/01/10 09:58:28;;;;;;;16.48;3.78;;;;;;;-149.78;100.00;50516.44;5056536;28;20055;-67
2022/01/10 10:00:55;;;;;;;17.58;2.88;;;;;;;-149.78;100.00;50498.81;5050959;28;20487;-67
2022/01/10 10:03:22;;;;;;;27.08;3.25;;;;;;;-149.78;100.00;50553.59;5075125;28;20523;-68
2022/01/10 10:05:52;;;;;;;22.30;3.90;;;;;;;-149.78;100.00;50502.75;5073879;28;20461;-67
2022/01/10 10:08:21;;;;;;;18.95;4.50;;;;;;;-149.78;100.00;50491.00;5071743;28;20055;-67
2022/01/10 10:10:48;;;;;;;11.85;3.38;;;;;;;-149.78;100.00;50510.56;5075097;28;20031;-66
2022/01/10 10:13:15;;;;;;;22.88;3.17;;;;;;;-149.78;100.00;50506.66;5066092;28;20036;-64
2022/01/10 10:15:43;;;;;;;22.77;2.83;;;;;;;-149.78;100.00;50506.66;5074868;28;20028;-65
2022/01/10 10:18:15;;;;;;;19.58;3.90;;;;;;;-149.78;100.00;50483.19;5072520;28;20407;-64
2022/01/10 10:20:43;;;;;;;15.85;3.58;;;;;;;-149.78;100.00;50518.38;5070202;28;20043;-64
2022/01/10 10:23:13;;;;;;;18.58;3.33;;;;;;;-149.78;100.00;50518.38;5074938;28;20036;-64
2022/01/10 10:25:47;;;;;;;15.80;3.28;;;;;;;-149.78;100.00;50510.56;5074379;28;20356;-64
2022/01/10 10:28:13;;;;;;;25.60;4.25;;;;;;;-149.78;100.00;50498.81;5074830;28;20032;-64
2022/01/10 10:30:39;;;;;;;31.15;5.22;;;;;;;-149.78;100.00;50502.75;5074559;28;20033;-64
2022/01/10 10:33:17;;;;;;;27.33;4.93;;;;;;;-149.78;100.00;50514.47;5056646;28;20050;-66
2022/01/10 10:35:53;;;;;;;38.55;7.72;;;;;;;-149.78;100.00;50479.28;5074587;28;20021;-64
2022/01/10 10:38:18;;;;;;;33.83;5.30;;;;;;;-149.78;100.00;50520.34;5074631;28;20032;-64
2022/01/10 10:40:45;;;;;;;27.13;5.50;;;;;;;-149.78;100.00;50514.47;5071094;28;20046;-66
2022/01/10 10:43:11;;;;;;;31.65;6.32;;;;;;;-149.78;100.00;50498.81;5071303;28;20119;-67
2022/01/10 10:45:38;;;;;;;31.42;6.65;;;;;;;-149.78;100.00;50502.75;5069291;28;20036;-67
2022/01/10 10:48:08;;;;;;;24.98;5.95;;;;;;;-149.78;100.00;50496.88;5074398;28;20040;-66
2022/01/10 10:50:43;;;;;;;21.75;5.43;;;;;;;-149.78;100.00;50522.28;5070253;28;20021;-64
2022/01/10 10:53:13;;;;;;;28.55;6.32;;;;;;;-149.78;100.00;50543.81;5058576;28;20444;-64
2022/01/10 10:55:40;;;;;;;20.33;6.38;;;;;;;-149.78;100.00;50514.47;5061345;28;20038;-64
2022/01/10 10:58:07;;;;;;;29.13;7.63;;;;;;;-149.78;100.00;50471.44;5047411;28;20034;-64
2022/01/10 11:00:33;;;;;;;34.10;6.20;;;;;;;-149.78;100.00;50522.28;5050421;28;20034;-64
2022/01/10 11:02:59;;;;;;;35.55;6.80;;;;;;;-149.78;100.00;50522.28;5061748;28;20123;-65
2022/01/10 11:05:25;;;;;;;31.73;6.95;;;;;;;-149.78;100.00;50537.94;5061442;28;20033;-64
2022/01/10 11:07:51;;;;;;;24.42;6.45;;;;;;;-149.78;100.00;50510.56;5059461;28;20037;-64
2022/01/10 11:10:17;;;;;;;31.10;6.50;;;;;;;-149.78;100.00;50483.19;5057751;28;20036;-64
2022/01/10 11:12:50;;;;;;;26.10;6.28;;;;;;;-149.78;100.00;50512.50;5065463;28;20501;-64
2022/01/10 11:15:16;;;;;;;32.38;6.53;;;;;;;-149.78;100.00;50530.13;5058210;28;20028;-67